createdAt,value
2023-01-09T00:01:19.419Z,100.00
2023-01-09T00:03:46.356Z,100.00
2023-01-09T00:06:12.893Z,100.00
2023-01-09T00:08:39.647Z,100.00
2023-01-09T00:11:06.586Z,100.00
2023-01-09T00:13:33.078Z,100.00
2023-01-09T00:15:59.903Z,100.00
2023-01-09T00:18:26.430Z,100.00
2023-01-09T00:20:52.999Z,100.00
2023-01-09T00:23:19.469Z,100.00
2023-01-09T00:25:45.999Z,100.00
2023-01-09T00:28:12.483Z,100.00
2023-01-09T00:30:39.128Z,100.00
2023-01-09T00:33:05.722Z,100.00
2023-01-09T00:35:32.203Z,100.00
2023-01-09T00:37:58.834Z,100.00
2023-01-09T00:40:25.447Z,100.00
2023-01-09T00:42:55.192Z,100.00
2023-01-09T00:45:28.755Z,100.00
2023-01-09T00:47:58.354Z,100.00
2023-01-09T00:50:28.030Z,100.00
2023-01-09T00:52:55.923Z,100.00
2023-01-09T00:55:23.097Z,100.00
2023-01-09T00:57:49.714Z,100.00
2023-01-09T01:00:16.485Z,100.00
2023-01-09T01:02:43.006Z,100.00
2023-01-09T01:05:28.455Z,100.00
2023-01-09T01:07:54.945Z,100.00
2023-01-09T01:10:23.085Z,100.00
2023-01-09T01:12:49.923Z,100.00
2023-01-09T01:15:17.307Z,100.00
2023-01-09T01:17:44.424Z,100.00
2023-01-09T01:20:14.610Z,100.00
2023-01-09T01:22:44.240Z,100.00
2023-01-09T01:25:11.854Z,100.00
2023-01-09T01:27:38.400Z,100.00
2023-01-09T01:30:05.637Z,100.00
2023-01-09T01:32:32.132Z,100.00
2023-01-09T01:34:58.627Z,100.00
2023-01-09T01:37:25.156Z,100.00
2023-01-09T01:39:51.908Z,100.00
2023-01-09T01:42:18.542Z,100.00
2023-01-09T01:45:00.409Z,100.00
2023-01-09T01:47:30.497Z,100.00
2023-01-09T01:49:57.093Z,100.00
2023-01-09T01:52:24.704Z,100.00
2023-01-09T01:54:51.529Z,100.00
2023-01-09T01:57:18.152Z,100.00
2023-01-09T01:59:50.405Z,100.00
2023-01-09T02:02:22.529Z,100.00
2023-01-09T02:04:51.092Z,100.00
2023-01-09T02:07:17.868Z,100.00
2023-01-09T02:09:47.293Z,100.00
2023-01-09T02:12:23.860Z,100.00
2023-01-09T02:15:09.200Z,100.00
2023-01-09T02:17:44.995Z,100.00
2023-01-09T02:20:11.515Z,100.00
2023-01-09T02:22:57.050Z,100.00
2023-01-09T02:25:42.121Z,100.00
2023-01-09T02:28:27.538Z,100.00
2023-01-09T02:31:12.674Z,100.00
2023-01-09T02:33:42.039Z,100.00
2023-01-09T02:36:11.681Z,100.00
2023-01-09T02:38:56.782Z,100.00
2023-01-09T02:41:38.186Z,100.00
2023-01-09T02:44:23.057Z,100.00
2023-01-09T02:47:00.152Z,100.00
2023-01-09T02:49:27.535Z,100.00
2023-01-09T02:51:59.163Z,100.00
2023-01-09T02:54:37.835Z,100.00
2023-01-09T02:57:16.328Z,100.00
2023-01-09T02:59:45.611Z,100.00
2023-01-09T03:02:12.095Z,100.00
2023-01-09T03:04:46.512Z,100.00
2023-01-09T03:07:16.099Z,100.00
2023-01-09T03:09:43.453Z,100.00
2023-01-09T03:12:09.952Z,100.00
2023-01-09T03:14:38.565Z,100.00
2023-01-09T03:17:07.776Z,100.00
2023-01-09T03:19:35.278Z,100.00
2023-01-09T03:22:02.075Z,100.00
2023-01-09T03:24:28.681Z,100.00
2023-01-09T03:26:55.547Z,100.00
2023-01-09T03:29:22.137Z,100.00
2023-01-09T03:31:48.761Z,100.00
2023-01-09T03:34:15.362Z,100.00
2023-01-09T03:36:41.959Z,100.00
2023-01-09T03:39:08.484Z,100.00
2023-01-09T03:41:35.016Z,100.00
2023-01-09T03:44:01.521Z,100.00
2023-01-09T03:46:28.030Z,100.00
2023-01-09T03:48:54.541Z,100.00
2023-01-09T03:51:21.052Z,100.00
2023-01-09T03:53:47.578Z,100.00
2023-01-09T03:56:14.077Z,100.00
2023-01-09T03:58:40.672Z,100.00
2023-01-09T04:01:12.961Z,100.00
2023-01-09T04:03:40.165Z,100.00
2023-01-09T04:06:07.175Z,100.00
2023-01-09T04:08:33.874Z,100.00
2023-01-09T04:11:00.383Z,100.00
2023-01-09T04:13:26.909Z,100.00
2023-01-09T04:15:53.410Z,100.00
2023-01-09T04:18:19.892Z,100.00
2023-01-09T04:20:47.537Z,100.00
2023-01-09T04:23:14.110Z,100.00
2023-01-09T04:25:40.614Z,100.00
2023-01-09T04:28:07.144Z,100.00
2023-01-09T04:30:33.647Z,100.00
2023-01-09T04:33:00.185Z,100.00
2023-01-09T04:35:26.659Z,100.00
2023-01-09T04:37:53.198Z,100.00
2023-01-09T04:40:19.897Z,100.00
2023-01-09T04:42:46.540Z,100.00
2023-01-09T04:45:15.508Z,100.00
2023-01-09T04:47:42.046Z,100.00
2023-01-09T04:50:09.266Z,100.00
2023-01-09T04:52:38.144Z,100.00
2023-01-09T04:55:05.670Z,100.00
2023-01-09T04:57:32.238Z,100.00
2023-01-09T04:59:58.745Z,100.00
2023-01-09T05:02:25.271Z,100.00
2023-01-09T05:04:51.777Z,100.00
2023-01-09T05:07:18.370Z,100.00
2023-01-09T05:09:44.906Z,100.00
2023-01-09T05:12:11.502Z,100.00
2023-01-09T05:14:37.993Z,100.00
2023-01-09T05:17:04.521Z,100.00
2023-01-09T05:19:31.014Z,100.00
2023-01-09T05:21:57.506Z,100.00
2023-01-09T05:24:24.039Z,100.00
2023-01-09T05:26:50.535Z,100.00
2023-01-09T05:29:17.194Z,100.00
2023-01-09T05:31:43.830Z,100.00
2023-01-09T05:34:10.387Z,100.00
2023-01-09T05:36:36.902Z,100.00
2023-01-09T05:39:04.055Z,100.00
2023-01-09T05:41:30.624Z,100.00
2023-01-09T05:43:57.176Z,100.00
2023-01-09T05:46:23.661Z,100.00
2023-01-09T05:48:50.251Z,100.00
2023-01-09T05:51:16.743Z,100.00
2023-01-09T05:53:43.279Z,100.00
2023-01-09T05:56:11.686Z,100.00
2023-01-09T05:58:38.539Z,100.00
2023-01-09T06:01:05.158Z,100.00
2023-01-09T06:03:31.809Z,100.00
2023-01-09T06:05:58.319Z,100.00
2023-01-09T06:08:24.849Z,100.00
2023-01-09T06:10:51.413Z,100.00
2023-01-09T06:13:17.983Z,100.00
2023-01-09T06:15:44.586Z,100.00
2023-01-09T06:18:11.160Z,100.00
2023-01-09T06:20:37.695Z,100.00
2023-01-09T06:23:04.231Z,100.00
2023-01-09T06:25:30.847Z,100.00
2023-01-09T06:27:57.363Z,100.00
2023-01-09T06:30:23.871Z,100.00
2023-01-09T06:32:50.610Z,100.00
2023-01-09T06:35:20.947Z,100.00
2023-01-09T06:37:48.383Z,100.00
2023-01-09T06:40:14.994Z,100.00
2023-01-09T06:42:45.251Z,100.00
2023-01-09T06:45:12.318Z,100.00
2023-01-09T06:47:39.475Z,100.00
2023-01-09T06:50:06.448Z,100.00
2023-01-09T06:52:32.943Z,100.00
2023-01-09T06:54:59.449Z,100.00
2023-01-09T06:57:26.360Z,100.00
2023-01-09T06:59:52.973Z,100.00
2023-01-09T07:02:20.463Z,100.00
2023-01-09T07:04:47.115Z,100.00
2023-01-09T07:07:13.917Z,100.00
2023-01-09T07:09:40.463Z,100.00
2023-01-09T07:12:07.063Z,100.00
2023-01-09T07:14:34.191Z,100.00
2023-01-09T07:17:00.718Z,100.00
2023-01-09T07:19:27.244Z,100.00
2023-01-09T07:21:53.775Z,100.00
2023-01-09T07:24:20.259Z,100.00
2023-01-09T07:26:46.719Z,100.00
2023-01-09T07:29:13.304Z,100.00
2023-01-09T07:31:39.849Z,100.00
2023-01-09T07:34:06.433Z,100.00
2023-01-09T07:36:32.886Z,100.00
2023-01-09T07:38:59.407Z,100.00
2023-01-09T07:41:25.982Z,100.00
2023-01-09T07:43:52.490Z,100.00
2023-01-09T07:46:19.046Z,100.00
2023-01-09T07:48:45.610Z,100.00
2023-01-09T07:51:12.819Z,100.00
2023-01-09T07:53:39.330Z,100.00
2023-01-09T07:56:06.036Z,100.00
2023-01-09T07:58:32.603Z,100.00
2023-01-09T08:00:59.149Z,100.00
2023-01-09T08:03:26.938Z,100.00
2023-01-09T08:05:53.493Z,100.00
2023-01-09T08:08:20.102Z,100.00
2023-01-09T08:10:46.638Z,100.00
2023-01-09T08:13:13.133Z,100.00
2023-01-09T08:15:39.614Z,100.00
2023-01-09T08:18:06.190Z,100.00
2023-01-09T08:20:32.894Z,100.00
2023-01-09T08:22:59.419Z,100.00
2023-01-09T08:25:25.927Z,100.00
2023-01-09T08:27:52.477Z,100.00
2023-01-09T08:30:19.631Z,100.00
2023-01-09T08:32:50.387Z,100.00
2023-01-09T08:35:17.080Z,100.00
2023-01-09T08:37:44.578Z,100.00
2023-01-09T08:40:11.744Z,100.00
2023-01-09T08:42:56.463Z,100.00
2023-01-09T08:45:41.444Z,100.00
2023-01-09T08:48:07.982Z,100.00
2023-01-09T08:50:34.577Z,100.00
2023-01-09T08:53:01.160Z,100.00
2023-01-09T08:55:27.707Z,100.00
2023-01-09T08:57:54.721Z,100.00
2023-01-09T09:00:22.795Z,100.00
2023-01-09T09:02:59.567Z,100.00
2023-01-09T09:05:27.310Z,100.00
2023-01-09T09:07:55.697Z,100.00
2023-01-09T09:10:23.172Z,100.00
2023-01-09T09:12:54.058Z,100.00
2023-01-09T09:15:24.245Z,100.00
2023-01-09T09:17:58.057Z,100.00
2023-01-09T09:20:25.844Z,100.00
2023-01-09T09:22:52.747Z,100.00
2023-01-09T09:25:19.542Z,100.00
2023-01-09T09:27:46.041Z,100.00
2023-01-09T09:30:14.080Z,100.00
2023-01-09T09:32:40.720Z,100.00
2023-01-09T09:35:07.731Z,100.00
2023-01-09T09:37:34.444Z,100.00
2023-01-09T09:40:13.530Z,100.00
2023-01-09T09:43:05.748Z,100.00
2023-01-09T09:45:44.267Z,100.00
2023-01-09T09:48:10.770Z,100.00
2023-01-09T09:50:43.359Z,100.00
2023-01-09T09:53:27.588Z,100.00
2023-01-09T09:55:54.676Z,100.00
2023-01-09T09:58:30.661Z,100.00
2023-01-09T10:00:58.436Z,100.00
2023-01-09T10:03:33.424Z,100.00
2023-01-09T10:06:02.807Z,100.00
2023-01-09T10:08:32.138Z,100.00
2023-01-09T10:10:59.067Z,100.00
2023-01-09T10:13:44.670Z,100.00
2023-01-09T10:16:11.209Z,100.00
2023-01-09T10:18:56.097Z,100.00
2023-01-09T10:21:22.622Z,100.00
2023-01-09T10:23:55.063Z,100.00
2023-01-09T10:26:43.587Z,100.00
2023-01-09T10:29:28.858Z,100.00
2023-01-09T10:32:02.847Z,100.00
2023-01-09T10:34:48.244Z,100.00
2023-01-09T10:37:17.507Z,100.00
2023-01-09T10:39:44.008Z,100.00
2023-01-09T10:42:22.534Z,100.00
2023-01-09T10:44:53.391Z,100.00
2023-01-09T10:47:31.702Z,100.00
2023-01-09T10:49:58.934Z,100.00
2023-01-09T10:52:28.888Z,100.00
2023-01-09T10:54:56.601Z,100.00
2023-01-09T10:57:43.441Z,100.00
2023-01-09T11:00:17.537Z,100.00
2023-01-09T11:02:44.492Z,100.00
2023-01-09T11:05:32.706Z,100.00
2023-01-09T11:08:22.572Z,100.00
2023-01-09T11:10:56.165Z,100.00
2023-01-09T11:13:25.915Z,100.00
2023-01-09T11:16:10.751Z,100.00
2023-01-09T11:18:48.181Z,100.00
2023-01-09T11:21:35.675Z,100.00
2023-01-09T11:24:21.424Z,100.00
2023-01-09T11:26:49.158Z,100.00
2023-01-09T11:29:26.112Z,100.00
2023-01-09T11:31:56.201Z,100.00
2023-01-09T11:34:25.228Z,100.00
2023-01-09T11:36:53.683Z,100.00
2023-01-09T11:39:25.173Z,100.00
2023-01-09T11:41:59.245Z,100.00
2023-01-09T11:44:26.254Z,100.00
2023-01-09T11:46:52.882Z,100.00
2023-01-09T11:49:28.613Z,100.00
2023-01-09T11:52:14.001Z,100.00
2023-01-09T11:54:46.848Z,100.00
2023-01-09T11:57:13.427Z,100.00
2023-01-09T11:59:39.910Z,100.00
2023-01-09T12:02:18.382Z,100.00
2023-01-09T12:04:53.734Z,100.00
2023-01-09T12:07:38.893Z,100.00
2023-01-09T12:10:08.459Z,100.00
2023-01-09T12:12:46.975Z,100.00
2023-01-09T12:15:21.071Z,100.00
2023-01-09T12:17:50.348Z,100.00
2023-01-09T12:20:22.766Z,100.00
2023-01-09T12:22:49.212Z,100.00
2023-01-09T12:25:15.762Z,100.00
2023-01-09T12:27:45.260Z,100.00
2023-01-09T12:30:41.183Z,100.00
2023-01-09T12:33:07.724Z,100.00
2023-01-09T12:35:38.139Z,100.00
2023-01-09T12:38:10.484Z,100.00
2023-01-09T12:40:42.810Z,100.00
2023-01-09T12:43:32.167Z,100.00
2023-01-09T12:46:04.762Z,100.00
2023-01-09T12:48:45.491Z,100.00
2023-01-09T12:51:24.130Z,100.00
2023-01-09T12:53:56.300Z,100.00
2023-01-09T12:56:25.385Z,100.00
2023-01-09T12:58:57.632Z,100.00
2023-01-09T13:01:32.683Z,100.00
2023-01-09T13:04:15.408Z,100.00
2023-01-09T13:06:45.796Z,100.00
2023-01-09T13:09:22.031Z,100.00
2023-01-09T13:12:03.158Z,100.00
2023-01-09T13:14:40.321Z,100.00
2023-01-09T13:17:11.104Z,100.00
2023-01-09T13:19:39.618Z,100.00
2023-01-09T13:22:07.147Z,100.00
2023-01-09T13:24:51.865Z,100.00
2023-01-09T13:27:20.288Z,100.00
2023-01-09T13:29:50.424Z,100.00
2023-01-09T13:32:35.333Z,100.00
2023-01-09T13:35:02.295Z,100.00
2023-01-09T13:37:30.041Z,100.00
2023-01-09T13:39:58.067Z,100.00
2023-01-09T13:42:39.836Z,100.00
2023-01-09T13:45:10.768Z,100.00
2023-01-09T13:47:37.501Z,100.00
2023-01-09T13:50:21.608Z,100.00
2023-01-09T13:52:48.577Z,100.00
2023-01-09T13:55:15.083Z,100.00
2023-01-09T13:58:00.126Z,100.00
2023-01-09T14:00:26.591Z,100.00
2023-01-09T14:02:56.692Z,100.00
2023-01-09T14:05:23.176Z,100.00
2023-01-09T14:07:51.552Z,100.00
2023-01-09T14:10:24.250Z,100.00
2023-01-09T14:12:52.038Z,100.00
2023-01-09T14:15:26.994Z,100.00
2023-01-09T14:18:01.717Z,100.00
2023-01-09T14:20:31.367Z,100.00
2023-01-09T14:23:18.113Z,100.00
2023-01-09T14:25:45.417Z,100.00
2023-01-09T14:28:28.499Z,100.00
2023-01-09T14:30:55.028Z,100.00
2023-01-09T14:33:27.628Z,100.00
2023-01-09T14:36:03.097Z,100.00
2023-01-09T14:38:32.354Z,100.00
2023-01-09T14:41:19.166Z,100.00
2023-01-09T14:43:49.381Z,100.00
2023-01-09T14:46:17.011Z,100.00
2023-01-09T14:48:54.153Z,100.00
2023-01-09T14:51:22.256Z,100.00
2023-01-09T14:53:51.732Z,100.00
2023-01-09T14:56:28.912Z,100.00
2023-01-09T14:59:05.543Z,100.00
2023-01-09T15:01:33.090Z,100.00
2023-01-09T15:04:02.439Z,100.00
2023-01-09T15:06:30.270Z,100.00
2023-01-09T15:08:59.059Z,100.00
2023-01-09T15:11:26.219Z,100.00
2023-01-09T15:13:53.669Z,100.00
2023-01-09T15:16:22.390Z,100.00
2023-01-09T15:18:51.474Z,100.00
2023-01-09T15:21:20.421Z,100.00
2023-01-09T15:23:46.956Z,100.00
2023-01-09T15:26:26.268Z,100.00
2023-01-09T15:28:54.017Z,100.00
2023-01-09T15:31:23.951Z,100.00
2023-01-09T15:33:53.122Z,100.00
2023-01-09T15:36:26.942Z,100.00
2023-01-09T15:38:54.347Z,100.00
2023-01-09T15:41:43.799Z,100.00
2023-01-09T15:44:16.155Z,100.00
2023-01-09T15:46:46.365Z,100.00
2023-01-09T15:49:13.920Z,100.00
2023-01-09T15:51:42.165Z,100.00
2023-01-09T15:54:13.849Z,100.00
2023-01-09T15:56:40.421Z,100.00
2023-01-09T15:59:22.275Z,100.00
2023-01-09T16:02:15.537Z,100.00
2023-01-09T16:04:42.138Z,100.00
2023-01-09T16:07:13.666Z,100.00
2023-01-09T16:09:40.135Z,100.00
2023-01-09T16:12:06.844Z,100.00
2023-01-09T16:14:45.765Z,100.00
2023-01-09T16:17:15.899Z,100.00
2023-01-09T16:19:46.989Z,100.00
2023-01-09T16:22:23.882Z,100.00
2023-01-09T16:24:53.622Z,100.00
2023-01-09T16:27:27.162Z,100.00
2023-01-09T16:29:57.822Z,100.00
2023-01-09T16:32:32.460Z,100.00
2023-01-09T16:35:14.485Z,100.00
2023-01-09T16:37:41.012Z,100.00
2023-01-09T16:40:25.903Z,100.00
2023-01-09T16:43:07.287Z,100.00
2023-01-09T16:45:40.962Z,100.00
2023-01-09T16:48:20.320Z,99.06
2023-01-09T16:50:47.206Z,92.88
2023-01-09T16:53:17.894Z,97.34
2023-01-09T16:55:45.280Z,94.71
2023-01-09T16:58:18.361Z,99.40
2023-01-09T17:00:45.242Z,95.33
2023-01-09T17:03:13.837Z,99.88
2023-01-09T17:05:40.468Z,100.00
2023-01-09T17:08:19.762Z,100.00
2023-01-09T17:10:46.308Z,97.27
2023-01-09T17:13:12.805Z,94.88
2023-01-09T17:15:39.369Z,99.91
2023-01-09T17:18:06.799Z,95.37
2023-01-09T17:20:34.466Z,95.29
2023-01-09T17:23:01.027Z,97.78
2023-01-09T17:25:46.210Z,100.00
2023-01-09T17:28:33.565Z,100.00
2023-01-09T17:31:00.658Z,98.29
2023-01-09T17:33:27.470Z,100.00
2023-01-09T17:35:54.332Z,100.00
2023-01-09T17:38:20.829Z,100.00
2023-01-09T17:40:47.409Z,100.00
2023-01-09T17:43:13.991Z,100.00
2023-01-09T17:45:41.654Z,100.00
2023-01-09T17:48:15.780Z,100.00
2023-01-09T17:50:42.340Z,100.00
2023-01-09T17:53:08.886Z,100.00
2023-01-09T17:55:36.092Z,100.00
2023-01-09T17:58:02.852Z,100.00
2023-01-09T18:00:30.820Z,100.00
2023-01-09T18:02:57.472Z,100.00
2023-01-09T18:05:24.882Z,100.00
2023-01-09T18:07:51.696Z,100.00
2023-01-09T18:10:19.700Z,100.00
2023-01-09T18:12:49.891Z,100.00
2023-01-09T18:15:16.914Z,100.00
2023-01-09T18:17:43.534Z,100.00
2023-01-09T18:20:10.813Z,100.00
2023-01-09T18:22:37.386Z,100.00
2023-01-09T18:25:04.304Z,100.00
2023-01-09T18:27:31.091Z,100.00
2023-01-09T18:29:57.651Z,100.00
2023-01-09T18:32:24.599Z,100.00
2023-01-09T18:34:51.178Z,100.00
2023-01-09T18:37:17.738Z,100.00
2023-01-09T18:39:44.386Z,100.00
2023-01-09T18:42:10.934Z,100.00
2023-01-09T18:44:37.420Z,100.00
2023-01-09T18:47:04.019Z,100.00
2023-01-09T18:49:30.547Z,100.00
2023-01-09T18:51:57.116Z,100.00
2023-01-09T18:54:23.730Z,100.00
2023-01-09T18:56:50.218Z,100.00
2023-01-09T18:59:16.738Z,100.00
2023-01-09T19:01:43.455Z,100.00
2023-01-09T19:04:10.083Z,98.07
2023-01-09T19:06:37.578Z,100.00
2023-01-09T19:09:05.382Z,100.00
2023-01-09T19:11:31.895Z,100.00
2023-01-09T19:13:58.465Z,100.00
2023-01-09T19:16:25.043Z,100.00
2023-01-09T19:18:51.587Z,99.51
2023-01-09T19:21:19.562Z,100.00
2023-01-09T19:23:46.929Z,100.00
2023-01-09T19:26:20.938Z,100.00
2023-01-09T19:28:48.273Z,99.30
2023-01-09T19:31:15.039Z,95.82
2023-01-09T19:33:41.608Z,96.90
2023-01-09T19:36:08.307Z,99.29
2023-01-09T19:38:35.033Z,91.35
2023-01-09T19:41:14.235Z,97.73
2023-01-09T19:43:41.509Z,100.00
2023-01-09T19:46:13.232Z,95.53
2023-01-09T19:48:39.766Z,88.71
2023-01-09T19:51:07.317Z,95.24
2023-01-09T19:53:34.977Z,93.39
2023-01-09T19:56:15.492Z,88.57
2023-01-09T19:58:43.092Z,97.18
2023-01-09T20:01:13.988Z,97.87
2023-01-09T20:03:40.963Z,92.24
2023-01-09T20:06:08.436Z,94.60
2023-01-09T20:08:34.964Z,89.96
2023-01-09T20:11:03.518Z,93.67
2023-01-09T20:13:30.025Z,99.32
2023-01-09T20:15:57.976Z,88.66
2023-01-09T20:18:24.507Z,90.95
2023-01-09T20:20:52.495Z,91.37
2023-01-09T20:23:22.595Z,90.02
2023-01-09T20:25:49.798Z,86.00
2023-01-09T20:28:17.070Z,89.17
2023-01-09T20:30:47.735Z,90.08
2023-01-09T20:33:15.320Z,91.41
2023-01-09T20:35:41.853Z,84.20
2023-01-09T20:38:09.008Z,85.85
2023-01-09T20:40:35.965Z,96.10
2023-01-09T20:43:02.886Z,88.04
2023-01-09T20:45:29.729Z,91.69
2023-01-09T20:47:56.367Z,88.89
2023-01-09T20:50:22.914Z,93.04
2023-01-09T20:52:49.437Z,87.83
2023-01-09T20:55:16.077Z,91.62
2023-01-09T20:57:42.650Z,89.83
2023-01-09T21:00:09.888Z,94.45
2023-01-09T21:02:36.449Z,93.22
2023-01-09T21:05:03.459Z,92.18
2023-01-09T21:07:30.141Z,94.08
2023-01-09T21:09:56.671Z,90.57
2023-01-09T21:12:34.900Z,93.14
2023-01-09T21:15:04.574Z,90.49
2023-01-09T21:17:38.329Z,85.25
2023-01-09T21:20:06.260Z,89.92
2023-01-09T21:22:33.977Z,87.84
2023-01-09T21:25:00.518Z,86.11
2023-01-09T21:27:36.529Z,87.20
2023-01-09T21:30:06.713Z,86.59
2023-01-09T21:32:33.235Z,86.52
2023-01-09T21:35:03.285Z,89.30
2023-01-09T21:37:30.377Z,90.44
2023-01-09T21:39:56.870Z,88.56
2023-01-09T21:42:42.144Z,88.16
2023-01-09T21:45:31.781Z,88.30
2023-01-09T21:47:58.497Z,90.19
2023-01-09T21:50:25.043Z,89.23
2023-01-09T21:52:51.535Z,84.53
2023-01-09T21:55:18.070Z,83.40
2023-01-09T21:57:44.563Z,84.23
2023-01-09T22:00:11.371Z,92.50
2023-01-09T22:02:39.252Z,86.27
2023-01-09T22:05:05.927Z,85.98
2023-01-09T22:07:32.411Z,85.38
2023-01-09T22:09:59.292Z,84.30
2023-01-09T22:12:25.820Z,82.33
2023-01-09T22:14:52.305Z,85.44
2023-01-09T22:17:18.840Z,81.58
2023-01-09T22:19:45.437Z,89.20
2023-01-09T22:22:11.995Z,80.76
2023-01-09T22:24:38.532Z,82.12
2023-01-09T22:27:05.369Z,85.02
2023-01-09T22:29:31.959Z,82.15
2023-01-09T22:31:58.571Z,84.75
2023-01-09T22:34:25.280Z,85.84
2023-01-09T22:36:51.830Z,81.73
2023-01-09T22:39:19.513Z,80.24
2023-01-09T22:41:50.264Z,79.37
2023-01-09T22:44:16.908Z,79.19
2023-01-09T22:46:43.483Z,79.57
2023-01-09T22:49:12.237Z,80.89
2023-01-09T22:51:39.039Z,78.67
2023-01-09T22:54:05.649Z,81.05
2023-01-09T22:56:35.144Z,82.79
2023-01-09T22:59:01.796Z,82.28
2023-01-09T23:01:28.477Z,80.51
2023-01-09T23:03:54.995Z,81.63
2023-01-09T23:06:22.521Z,79.73
2023-01-09T23:08:52.947Z,82.60
2023-01-09T23:11:42.139Z,82.55
2023-01-09T23:14:08.949Z,80.41
2023-01-09T23:16:35.613Z,84.20
2023-01-09T23:19:02.237Z,82.98
2023-01-09T23:21:28.825Z,83.01
2023-01-09T23:23:55.401Z,82.70
2023-01-09T23:26:21.968Z,83.08
2023-01-09T23:28:48.563Z,81.30
2023-01-09T23:31:15.699Z,80.08
2023-01-09T23:33:42.351Z,81.26
2023-01-09T23:36:09.308Z,81.35
2023-01-09T23:38:35.907Z,81.68
2023-01-09T23:41:02.381Z,83.68
2023-01-09T23:43:28.956Z,83.99
2023-01-09T23:45:55.558Z,83.43
2023-01-09T23:48:22.181Z,83.82
2023-01-09T23:50:50.466Z,81.86
2023-01-09T23:53:17.340Z,84.03
2023-01-09T23:55:44.480Z,83.43
2023-01-09T23:58:11.112Z,81.31
